Time;durP1;ratioP1;P1;durP2;ratioP2;P2;SDS_P1;SDS_P2;PMS_P1;PMS_P2;Temp;Humidity;BMP_temperature;BMP_pressure;BME280_temperature;BME280_humidity;BME280_pressure;Samples;Min_cycle;Max_cycle;Signal;HPM_P1;HPM_P2
2023/06/21 00:01:38;;;;;;;7.87;6.23;;;20.00;99.90;;;;;;5012791;28;20421;-87
2023/06/21 00:04:04;;;;;;;9.17;6.80;;;20.00;99.90;;;;;;5025192;28;20752;-87
2023/06/21 00:06:30;;;;;;;9.20;6.07;;;;;;;;;;5022561;28;20429;-86
2023/06/21 00:08:59;;;;;;;9.77;6.73;;;19.90;99.90;;;;;;4998369;28;20430;-86
2023/06/21 00:11:24;;;;;;;10.47;5.97;;;21.10;99.90;;;;;;4989163;28;20458;-85
2023/06/21 00:13:54;;;;;;;7.80;5.70;;;;;;;;;;5003379;28;21018;-86
2023/06/21 00:16:20;;;;;;;8.83;7.73;;;19.90;99.90;;;;;;5003224;28;20175;-86
2023/06/21 00:18:46;;;;;;;9.33;7.20;;;19.90;99.90;;;;;;4986747;28;20449;-86
2023/06/21 00:21:13;;;;;;;8.07;6.37;;;19.90;99.90;;;;;;5020367;28;20406;-86
2023/06/21 00:23:39;;;;;;;12.30;6.87;;;19.80;99.90;;;;;;5002238;28;20186;-85
2023/06/21 00:26:05;;;;;;;13.13;7.07;;;19.80;99.90;;;;;;5007974;28;20421;-86
2023/06/21 00:28:30;;;;;;;11.10;6.80;;;19.90;99.90;;;;;;4987320;28;21170;-84
2023/06/21 00:30:56;;;;;;;10.20;7.03;;;;;;;;;;5011678;28;20221;-85
2023/06/21 00:33:22;;;;;;;10.57;7.23;;;19.80;99.90;;;;;;5015323;28;20189;-85
2023/06/21 00:35:48;;;;;;;11.03;7.40;;;19.80;99.90;;;;;;5000720;28;20430;-84
2023/06/21 00:38:13;;;;;;;13.63;6.37;;;19.80;99.90;;;;;;5014837;28;20210;-85
2023/06/21 00:40:39;;;;;;;9.33;6.90;;;19.80;99.90;;;;;;5008697;28;20604;-88
2023/06/21 00:43:05;;;;;;;10.20;6.90;;;20.20;99.90;;;;;;4999835;28;20202;-88
2023/06/21 00:45:39;;;;;;;15.33;7.13;;;19.70;99.90;;;;;;5018724;28;20245;-88
2023/06/21 00:48:05;;;;;;;9.50;6.50;;;19.70;99.90;;;;;;5002569;28;20405;-88
2023/06/21 00:50:31;;;;;;;7.83;6.53;;;;;;;;;;5019386;28;20501;-88
2023/06/21 00:52:57;;;;;;;8.33;6.87;;;19.70;99.90;;;;;;5001878;28;20524;-87
2023/06/21 00:55:23;;;;;;;12.10;7.10;;;19.60;99.90;;;;;;5003622;28;20962;-87
2023/06/21 00:57:49;;;;;;;9.33;6.57;;;19.40;99.90;;;;;;5001583;28;20413;-84
2023/06/21 01:00:20;;;;;;;12.83;7.10;;;19.40;99.90;;;;;;4995131;28;20519;-85
2023/06/21 01:02:46;;;;;;;10.83;7.10;;;19.30;99.90;;;;;;4995556;28;20449;-85
2023/06/21 01:05:15;;;;;;;10.87;7.70;;;19.30;99.90;;;;;;4992000;28;20441;-86
2023/06/21 01:08:00;;;;;;;9.93;7.03;;;19.20;99.90;;;;;;4988679;28;20451;-85
2023/06/21 01:10:46;;;;;;;8.33;7.00;;;19.20;99.90;;;;;;4985158;28;20472;-85
2023/06/21 01:13:37;;;;;;;11.87;7.10;;;19.30;99.90;;;;;;4997038;28;21085;-84
2023/06/21 01:16:15;;;;;;;10.23;7.23;;;19.30;99.90;;;;;;5012165;28;20459;-85
2023/06/21 01:18:45;;;;;;;10.37;8.37;;;19.20;99.90;;;;;;4998971;28;20449;-85
2023/06/21 01:21:18;;;;;;;11.67;7.97;;;19.20;99.90;;;;;;5008663;28;20437;-84
2023/06/21 01:24:18;;;;;;;14.30;7.43;;;19.20;99.90;;;;;;4997543;28;20449;-85
2023/06/21 01:27:16;;;;;;;9.70;7.03;;;19.20;99.90;;;;;;5009000;28;21082;-85
2023/06/21 01:29:47;;;;;;;10.37;7.63;;;19.20;99.90;;;;;;4998314;28;20465;-85
2023/06/21 01:32:16;;;;;;;10.13;7.87;;;19.20;99.90;;;;;;4988107;28;21307;-85
2023/06/21 01:34:41;;;;;;;9.57;7.23;;;19.20;99.90;;;;;;5006924;28;20878;-85
2023/06/21 01:37:08;;;;;;;11.40;7.97;;;19.20;99.90;;;;;;4994037;28;20445;-85
2023/06/21 01:39:34;;;;;;;12.50;7.87;;;19.30;99.90;;;;;;4997427;28;20468;-85
2023/06/21 01:42:00;;;;;;;10.57;7.17;;;19.30;99.90;;;;;;5010361;28;20441;-86
2023/06/21 01:44:26;;;;;;;11.93;7.83;;;20.00;99.90;;;;;;5014952;28;20174;-87
2023/06/21 01:46:55;;;;;;;11.37;7.47;;;19.40;99.90;;;;;;4989006;28;20813;-85
2023/06/21 01:49:22;;;;;;;11.30;7.77;;;19.40;99.90;;;;;;4994052;28;20449;-85
2023/06/21 01:51:49;;;;;;;9.30;7.10;;;19.40;99.90;;;;;;4999850;28;20492;-85
2023/06/21 01:54:15;;;;;;;10.47;7.10;;;19.80;99.90;;;;;;5012232;28;20439;-86
2023/06/21 01:56:43;;;;;;;11.37;8.07;;;19.10;99.90;;;;;;4999978;28;20456;-86
2023/06/21 01:59:09;;;;;;;10.33;7.90;;;19.00;99.90;;;;;;4998604;28;20507;-86
2023/06/21 02:01:35;;;;;;;11.33;7.60;;;;;;;;;;5009873;28;20441;-86
2023/06/21 02:04:03;;;;;;;8.93;7.37;;;18.90;99.90;;;;;;4999991;28;21155;-86
2023/06/21 02:06:30;;;;;;;9.93;7.70;;;19.00;99.90;;;;;;5002076;28;20429;-86
2023/06/21 02:09:00;;;;;;;9.53;7.20;;;19.00;99.90;;;;;;5000181;28;20500;-86
2023/06/21 02:11:29;;;;;;;11.00;8.20;;;18.90;99.90;;;;;;4995452;28;20457;-86
2023/06/21 02:13:54;;;;;;;13.77;8.73;;;18.90;99.90;;;;;;5006073;28;20534;-86
2023/06/21 02:16:28;;;;;;;12.90;7.67;;;19.00;99.90;;;;;;5005445;28;20453;-86
2023/06/21 02:18:54;;;;;;;13.17;8.17;;;19.00;99.90;;;;;;5021161;28;20651;-86
2023/06/21 02:21:23;;;;;;;10.50;7.20;;;19.20;99.90;;;;;;5018698;28;20464;-85
2023/06/21 02:23:49;;;;;;;8.50;6.93;;;19.10;99.90;;;;;;4999591;28;20183;-85
2023/06/21 02:26:15;;;;;;;10.57;7.73;;;;;;;;;;5007070;28;20425;-86
2023/06/21 02:28:41;;;;;;;11.10;7.90;;;19.40;99.90;;;;;;4997732;28;20545;-85
2023/06/21 02:31:07;;;;;;;11.47;7.93;;;;;;;;;;5002514;28;20524;-86
2023/06/21 02:33:32;;;;;;;11.60;7.37;;;19.60;99.90;;;;;;5016640;28;20421;-85
2023/06/21 02:35:58;;;;;;;10.60;7.73;;;19.70;99.90;;;;;;5010691;28;20426;-86
2023/06/21 02:38:27;;;;;;;11.37;8.50;;;19.70;99.90;;;;;;5000773;28;20182;-85
2023/06/21 02:40:52;;;;;;;10.93;8.10;;;19.60;99.90;;;;;;4996086;28;20716;-85
2023/06/21 02:43:18;;;;;;;13.80;9.10;;;19.60;99.90;;;;;;4997521;28;20422;-85
2023/06/21 02:45:45;;;;;;;15.47;9.43;;;19.60;99.90;;;;;;4998294;28;20194;-85
2023/06/21 02:48:11;;;;;;;13.97;9.60;;;20.30;99.90;;;;;;5012843;28;20186;-85
2023/06/21 02:50:36;;;;;;;12.37;9.00;;;19.70;99.90;;;;;;5016462;28;20464;-85
2023/06/21 02:53:02;;;;;;;12.30;8.70;;;19.80;99.90;;;;;;4999878;28;20372;-85
2023/06/21 02:55:28;;;;;;;14.13;9.37;;;;;;;;;;5015221;28;20174;-85
2023/06/21 02:57:54;;;;;;;14.23;10.83;;;19.80;99.90;;;;;;4998290;28;20273;-85
2023/06/21 03:00:29;;;;;;;18.80;9.43;;;19.90;99.90;;;;;;5003473;28;20449;-85
2023/06/21 03:03:00;;;;;;;11.50;8.73;;;19.90;99.90;;;;;;4998049;28;20500;-86
2023/06/21 03:05:36;;;;;;;13.13;9.60;;;19.70;99.90;;;;;;4999394;28;20433;-84
2023/06/21 03:08:07;;;;;;;12.63;9.30;;;19.80;99.90;;;;;;5014554;28;20496;-85
2023/06/21 03:10:33;;;;;;;11.97;9.00;;;19.70;99.90;;;;;;5000892;28;20477;-85
2023/06/21 03:12:59;;;;;;;15.33;9.90;;;19.70;99.90;;;;;;4996053;28;20434;-85
2023/06/21 03:15:24;;;;;;;12.70;9.40;;;19.60;99.90;;;;;;5013054;28;20277;-85
2023/06/21 03:17:50;;;;;;;19.27;11.00;;;19.60;99.90;;;;;;5009609;28;20950;-85
2023/06/21 03:20:16;;;;;;;13.07;10.27;;;19.60;99.90;;;;;;4995795;28;20198;-85
2023/06/21 03:22:45;;;;;;;11.90;9.80;;;19.70;99.90;;;;;;4997001;28;20241;-87
2023/06/21 03:25:12;;;;;;;12.17;8.63;;;19.90;99.90;;;;;;5008612;28;20174;-86
2023/06/21 03:27:38;;;;;;;10.53;7.90;;;19.90;99.90;;;;;;5000064;28;20811;-88
2023/06/21 03:30:11;;;;;;;11.63;8.07;;;20.00;99.90;;;;;;4993924;28;20453;-87
2023/06/21 03:32:46;;;;;;;15.63;7.97;;;20.10;99.90;;;;;;4994569;28;20426;-86
2023/06/21 03:35:14;;;;;;;11.07;7.33;;;20.10;99.90;;;;;;5000152;28;20990;-87
2023/06/21 03:37:40;;;;;;;14.17;8.70;;;;;;;;;;5003508;28;20437;-87
2023/06/21 03:40:08;;;;;;;10.43;7.73;;;;;;;;;;4997657;28;20460;-87
2023/06/21 03:42:34;;;;;;;10.10;7.23;;;20.40;99.90;;;;;;5011109;28;20491;-87
2023/06/21 03:44:59;;;;;;;10.03;7.20;;;20.60;99.90;;;;;;4995640;28;20951;-85
2023/06/21 03:47:25;;;;;;;14.63;6.70;;;;;;;;;;4992757;28;20594;-85
2023/06/21 03:49:51;;;;;;;7.63;6.93;;;21.30;99.90;;;;;;4999634;28;20203;-86
2023/06/21 03:52:16;;;;;;;10.57;6.90;;;;;;;;;;4998015;28;20724;-84
2023/06/21 03:54:42;;;;;;;12.60;6.87;;;;;;;;;;5003067;28;20182;-83
2023/06/21 03:57:08;;;;;;;7.50;5.70;;;21.40;99.90;;;;;;5004542;28;20473;-88
2023/06/21 03:59:33;;;;;;;17.77;8.67;;;22.30;99.90;;;;;;5005316;28;20465;-89
2023/06/21 04:01:59;;;;;;;9.77;6.70;;;21.30;99.90;;;;;;4995650;28;20695;-87
2023/06/21 04:04:25;;;;;;;10.60;6.63;;;21.20;99.90;;;;;;5008398;28;20198;-84
2023/06/21 04:06:51;;;;;;;9.83;5.87;;;;;;;;;;5007600;28;20635;-86
2023/06/21 04:09:17;;;;;;;6.03;4.83;;;20.70;99.90;;;;;;5003961;28;20225;-84
2023/06/21 04:11:44;;;;;;;10.13;4.90;;;20.20;99.90;;;;;;4991596;28;20469;-86
2023/06/21 04:14:11;;;;;;;6.70;4.20;;;20.10;99.90;;;;;;4988525;28;20934;-87
2023/06/21 04:16:37;;;;;;;4.73;3.83;;;20.00;99.90;;;;;;4983080;28;20806;-84
2023/06/21 04:19:02;;;;;;;9.10;3.50;;;19.60;99.90;;;;;;4991874;28;20433;-85
2023/06/21 04:21:29;;;;;;;7.20;3.50;;;19.60;99.90;;;;;;5000760;28;20190;-88
2023/06/21 04:23:54;;;;;;;7.00;4.63;;;19.50;99.90;;;;;;4996057;28;20191;-85
2023/06/21 04:26:22;;;;;;;5.77;4.10;;;19.20;99.90;;;;;;4986001;28;20500;-85
2023/06/21 04:28:48;;;;;;;11.87;3.87;;;19.10;99.90;;;;;;4993428;28;20190;-86
2023/06/21 04:31:14;;;;;;;5.57;2.83;;;19.00;99.90;;;;;;4989061;28;20548;-84
2023/06/21 04:33:39;;;;;;;10.93;3.93;;;19.00;99.90;;;;;;5001502;28;20457;-84
2023/06/21 04:36:05;;;;;;;10.67;3.27;;;18.90;99.90;;;;;;5006955;28;20249;-84
2023/06/21 04:38:33;;;;;;;5.93;3.90;;;;;;;;;;4994213;28;20192;-84
2023/06/21 04:40:59;;;;;;;4.33;2.73;;;;;;;;;;5004766;28;20468;-84
2023/06/21 04:43:27;;;;;;;10.27;4.10;;;19.00;99.90;;;;;;4987957;28;20942;-85
2023/06/21 04:45:53;;;;;;;4.90;2.40;;;19.00;99.90;;;;;;4988115;28;20453;-84
2023/06/21 04:48:18;;;;;;;4.43;2.60;;;;;;;;;;4991405;28;20469;-85
2023/06/21 04:50:45;;;;;;;5.60;2.60;;;19.20;99.90;;;;;;4991940;28;20688;-84
2023/06/21 04:53:13;;;;;;;9.13;3.00;;;19.40;99.90;;;;;;4999087;28;20453;-84
2023/06/21 04:55:42;;;;;;;5.03;2.23;;;19.30;99.90;;;;;;5010490;28;20430;-84
2023/06/21 04:58:09;;;;;;;5.30;3.13;;;19.20;99.90;;;;;;5008468;28;20437;-84
2023/06/21 05:00:35;;;;;;;6.37;3.07;;;19.10;99.90;;;;;;4990986;28;20462;-84
2023/06/21 05:03:00;;;;;;;4.50;2.63;;;19.00;99.90;;;;;;5009715;28;20460;-83
2023/06/21 05:05:26;;;;;;;5.00;2.23;;;19.00;99.90;;;;;;5006360;28;21522;-84
2023/06/21 05:07:52;;;;;;;4.83;3.23;;;19.00;99.90;;;;;;5005197;28;20702;-85
2023/06/21 05:10:17;;;;;;;3.30;2.40;;;19.00;99.90;;;;;;4990797;28;20638;-84
2023/06/21 05:12:43;;;;;;;4.17;2.53;;;18.90;99.90;;;;;;5007208;28;20183;-84
2023/06/21 05:15:09;;;;;;;3.80;3.00;;;18.90;99.90;;;;;;5004201;28;20182;-84
2023/06/21 05:17:35;;;;;;;5.63;3.30;;;18.90;99.90;;;;;;5004419;28;20181;-83
2023/06/21 05:20:02;;;;;;;6.43;2.80;;;18.90;99.90;;;;;;5005276;28;20528;-84
2023/06/21 05:22:28;;;;;;;5.50;3.00;;;18.90;99.90;;;;;;5004591;28;20228;-84
2023/06/21 05:24:53;;;;;;;10.70;2.80;;;18.80;99.90;;;;;;5005281;28;21044;-84
2023/06/21 05:27:19;;;;;;;5.63;2.80;;;18.90;99.90;;;;;;5006746;28;20198;-84
2023/06/21 05:29:45;;;;;;;5.50;2.73;;;19.00;99.90;;;;;;5008154;28;20206;-84
2023/06/21 05:32:10;;;;;;;3.87;2.13;;;19.10;99.90;;;;;;5009033;28;20217;-84
2023/06/21 05:34:36;;;;;;;4.30;2.67;;;19.10;99.90;;;;;;5002610;28;20190;-84
2023/06/21 05:37:01;;;;;;;5.80;3.00;;;19.00;99.90;;;;;;5006158;28;20175;-84
2023/06/21 05:39:27;;;;;;;7.50;3.10;;;19.00;99.90;;;;;;5005878;28;20202;-84
2023/06/21 05:41:53;;;;;;;6.40;3.50;;;19.10;99.90;;;;;;5005137;28;20190;-84
2023/06/21 05:44:18;;;;;;;5.30;2.13;;;19.00;99.90;;;;;;5006084;28;20623;-84
2023/06/21 05:46:44;;;;;;;5.37;2.70;;;18.90;99.90;;;;;;5003355;28;20183;-85
2023/06/21 05:49:09;;;;;;;4.17;2.97;;;19.00;99.90;;;;;;5005552;28;20258;-84
2023/06/21 05:51:35;;;;;;;4.77;3.13;;;19.00;99.90;;;;;;5006454;28;20550;-84
2023/06/21 05:54:00;;;;;;;7.30;3.00;;;19.00;99.90;;;;;;5003785;28;20197;-84
2023/06/21 05:56:27;;;;;;;4.03;2.90;;;19.00;99.90;;;;;;5002281;28;20628;-83
2023/06/21 05:58:53;;;;;;;3.43;2.67;;;18.40;99.90;;;;;;5004260;28;20633;-84
2023/06/21 06:01:19;;;;;;;6.27;3.03;;;18.40;99.90;;;;;;5008202;28;20441;-84
2023/06/21 06:03:44;;;;;;;8.97;2.73;;;18.40;99.90;;;;;;5005915;28;20444;-84
2023/06/21 06:06:14;;;;;;;5.50;2.90;;;18.30;99.90;;;;;;4991413;28;20293;-83
2023/06/21 06:08:40;;;;;;;6.93;3.30;;;18.40;99.90;;;;;;4996572;28;20178;-84
2023/06/21 06:11:05;;;;;;;18.10;3.40;;;18.40;99.90;;;;;;5005746;28;20569;-84
2023/06/21 06:13:31;;;;;;;3.40;2.63;;;18.40;99.90;;;;;;4997594;28;20233;-84
2023/06/21 06:15:56;;;;;;;3.80;2.83;;;;;;;;;;4995875;28;20789;-84
2023/06/21 06:18:22;;;;;;;4.03;2.60;;;18.80;99.90;;;;;;5010615;28;20190;-84
2023/06/21 06:20:47;;;;;;;5.43;3.30;;;19.00;99.90;;;;;;5007951;28;20500;-84
2023/06/21 06:23:13;;;;;;;4.70;3.10;;;19.20;99.90;;;;;;4993754;28;20240;-84
2023/06/21 06:25:39;;;;;;;6.77;3.47;;;19.20;99.90;;;;;;4992622;28;20541;-84
2023/06/21 06:28:05;;;;;;;7.33;4.30;;;19.30;99.90;;;;;;5009175;28;20210;-84
2023/06/21 06:30:31;;;;;;;5.50;2.93;;;19.30;99.90;;;;;;5007785;28;20465;-84
2023/06/21 06:32:56;;;;;;;6.00;4.27;;;19.30;99.90;;;;;;5011570;28;20190;-83
2023/06/21 06:35:22;;;;;;;7.40;4.03;;;19.20;99.90;;;;;;4986063;28;20186;-83
2023/06/21 06:37:47;;;;;;;9.93;4.30;;;19.30;99.90;;;;;;4996894;28;20636;-84
2023/06/21 06:40:13;;;;;;;6.40;4.10;;;19.40;99.90;;;;;;5006858;28;20214;-84
2023/06/21 06:42:38;;;;;;;7.47;4.33;;;19.30;99.90;;;;;;4997279;28;20202;-84
2023/06/21 06:45:04;;;;;;;10.90;5.50;;;19.40;99.90;;;;;;4987760;28;20757;-84
2023/06/21 06:47:30;;;;;;;8.37;7.53;;;19.50;99.90;;;;;;5004438;28;20186;-85
2023/06/21 06:49:57;;;;;;;4.93;3.90;;;19.60;99.90;;;;;;5006123;28;20940;-84
2023/06/21 06:52:23;;;;;;;6.67;5.10;;;19.90;99.90;;;;;;5003831;28;20483;-84
2023/06/21 06:54:48;;;;;;;10.40;4.47;;;20.20;99.90;;;;;;5002246;28;20429;-84
2023/06/21 06:57:14;;;;;;;7.77;4.40;;;20.60;99.90;;;;;;5006035;28;20179;-83
2023/06/21 06:59:39;;;;;;;8.23;5.00;;;21.00;99.90;;;;;;5005015;28;20300;-84
2023/06/21 07:02:06;;;;;;;5.90;3.93;;;;;;;;;;5005137;28;20202;-84
2023/06/21 07:04:32;;;;;;;7.27;4.53;;;;;;;;;;4986499;28;20201;-84
2023/06/21 07:06:58;;;;;;;3.70;3.20;;;23.30;99.90;;;;;;4987415;28;20438;-84
2023/06/21 07:09:25;;;;;;;7.50;3.90;;;;;;;;;;4990548;28;20484;-84
2023/06/21 07:11:51;;;;;;;5.10;4.47;;;;;;;;;;5003455;28;20466;-85
2023/06/21 07:14:16;;;;;;;4.80;3.83;;;26.70;99.90;;;;;;5004870;28;20518;-84
2023/06/21 07:16:48;;;;;;;3.50;2.70;;;27.90;99.90;;;;;;5003203;28;20453;-83
2023/06/21 07:19:14;;;;;;;6.00;3.80;;;29.00;99.90;;;;;;5006588;28;20702;-84
2023/06/21 07:21:40;;;;;;;5.10;3.77;;;;;;;;;;4995188;28;20800;-83
2023/06/21 07:24:05;;;;;;;4.33;3.70;;;30.90;99.90;;;;;;5006514;28;20184;-84
2023/06/21 07:26:31;;;;;;;4.30;3.00;;;31.30;99.90;;;;;;5008746;28;20438;-85
2023/06/21 07:28:58;;;;;;;7.80;4.07;;;;;;;;;;5009581;28;20252;-85
2023/06/21 07:31:23;;;;;;;3.40;2.83;;;30.70;99.90;;;;;;4992312;28;20487;-86
2023/06/21 07:33:49;;;;;;;8.97;4.13;;;;;;;;;;5009914;28;21226;-85
2023/06/21 07:36:15;;;;;;;7.17;3.23;;;;;;;;;;4991814;28;20197;-85
2023/06/21 07:38:46;;;;;;;5.57;4.23;;;;;;;;;;4990845;28;20439;-84
2023/06/21 07:41:12;;;;;;;7.67;4.33;;;;;;;;;;5012580;28;20472;-84
2023/06/21 07:43:38;;;;;;;4.93;2.50;;;;;;;;;;5010376;28;20440;-84
2023/06/21 07:46:03;;;;;;;3.10;2.40;;;;;;;;;;5000387;28;20447;-85
2023/06/21 07:48:29;;;;;;;5.07;3.10;;;;;;;;;;5010779;28;20437;-84
2023/06/21 07:50:55;;;;;;;4.70;3.50;;;;;;;;;;4990764;28;20523;-84
2023/06/21 07:53:21;;;;;;;2.53;2.33;;;28.90;99.90;;;;;;5012264;28;20446;-84
2023/06/21 07:55:46;;;;;;;3.40;3.00;;;28.70;99.90;;;;;;5008962;28;20437;-85
2023/06/21 07:58:12;;;;;;;4.23;2.93;;;;;;;;;;5009707;28;20187;-84
2023/06/21 08:00:38;;;;;;;4.20;3.03;;;27.60;99.90;;;;;;5011182;28;20218;-85
2023/06/21 08:03:03;;;;;;;3.43;2.73;;;26.40;99.90;;;;;;4997293;28;20497;-85
2023/06/21 08:05:29;;;;;;;2.77;2.33;;;;;;;;;;4997942;28;20202;-84
2023/06/21 08:07:58;;;;;;;5.67;3.17;;;;;;;;;;5010759;28;20187;-84
2023/06/21 08:10:24;;;;;;;3.00;2.23;;;;;;;;;;4988865;28;20463;-86
2023/06/21 08:12:49;;;;;;;3.80;2.70;;;25.80;99.90;;;;;;5010982;28;20442;-84
2023/06/21 08:15:15;;;;;;;4.80;3.17;;;;;;;;;;5000372;28;20437;-85
2023/06/21 08:17:41;;;;;;;3.90;2.43;;;;;;;;;;5012530;28;20214;-85
2023/06/21 08:20:07;;;;;;;6.20;3.00;;;;;;;;;;5008458;28;20458;-84
2023/06/21 08:22:33;;;;;;;4.10;2.13;;;;;;;;;;4992191;28;20519;-84
2023/06/21 08:24:59;;;;;;;3.47;2.40;;;;;;;;;;4990162;28;20461;-86
2023/06/21 08:27:25;;;;;;;4.10;2.93;;;;;;;;;;4992028;28;20978;-84
2023/06/21 08:29:51;;;;;;;9.87;3.33;;;;;;;;;;5009496;28;20464;-85
2023/06/21 08:32:18;;;;;;;4.80;3.07;;;;;;;;;;5007657;28;20771;-85
2023/06/21 08:34:44;;;;;;;4.00;2.40;;;;;;;;;;5008165;28;20423;-85
2023/06/21 08:37:10;;;;;;;3.20;2.67;;;;;;;;;;4989371;28;20439;-85
2023/06/21 08:39:35;;;;;;;3.27;2.30;;;24.80;99.90;;;;;;4988015;28;20481;-85
2023/06/21 08:42:01;;;;;;;2.93;2.20;;;24.30;99.90;;;;;;5006525;28;20437;-84
2023/06/21 08:44:27;;;;;;;5.23;3.23;;;;;;;;;;5008832;28;20211;-84
2023/06/21 08:46:54;;;;;;;3.77;2.77;;;24.10;99.90;;;;;;5009241;28;20306;-84
2023/06/21 08:49:20;;;;;;;3.63;2.70;;;24.50;99.90;;;;;;5004953;28;20461;-85
2023/06/21 08:51:48;;;;;;;9.40;4.17;;;24.40;99.90;;;;;;5005359;28;21089;-85
2023/06/21 08:54:15;;;;;;;4.30;2.57;;;24.70;99.90;;;;;;5004962;28;20476;-84
2023/06/21 08:56:53;;;;;;;4.70;3.10;;;24.30;99.90;;;;;;5004720;28;20959;-84
2023/06/21 08:59:34;;;;;;;3.70;2.93;;;23.90;99.90;;;;;;4985901;28;20453;-84
2023/06/21 09:02:05;;;;;;;5.27;2.33;;;23.30;99.90;;;;;;5006081;28;20426;-85
2023/06/21 09:04:35;;;;;;;4.30;2.90;;;23.30;99.90;;;;;;4985330;28;20433;-85
2023/06/21 09:07:01;;;;;;;3.83;2.90;;;22.90;99.90;;;;;;4986628;28;20436;-84
2023/06/21 09:09:27;;;;;;;4.23;2.80;;;22.80;99.90;;;;;;5006351;28;20461;-83
2023/06/21 09:11:54;;;;;;;6.43;3.13;;;22.70;99.90;;;;;;5004184;28;20555;-83
2023/06/21 09:14:21;;;;;;;5.03;3.23;;;22.80;99.90;;;;;;4990305;28;20433;-83
2023/06/21 09:16:47;;;;;;;3.70;2.50;;;22.70;99.90;;;;;;4987366;28;20462;-83
2023/06/21 09:19:15;;;;;;;5.00;2.87;;;22.90;99.90;;;;;;4983833;28;20453;-84
2023/06/21 09:21:42;;;;;;;3.07;2.70;;;23.00;99.90;;;;;;4993244;28;20440;-83
2023/06/21 09:24:08;;;;;;;5.70;3.77;;;22.80;99.90;;;;;;4991298;28;20454;-83
2023/06/21 09:26:36;;;;;;;4.50;3.60;;;22.60;99.90;;;;;;4989926;28;20847;-83
2023/06/21 09:29:01;;;;;;;4.23;3.13;;;22.50;99.90;;;;;;5004853;28;20179;-82
2023/06/21 09:31:27;;;;;;;11.00;4.27;;;22.40;99.90;;;;;;5009485;28;20460;-84
2023/06/21 09:33:54;;;;;;;6.53;3.90;;;22.40;99.90;;;;;;4990573;28;20183;-84
2023/06/21 09:36:19;;;;;;;6.07;3.30;;;22.40;99.90;;;;;;5009330;28;20190;-83
2023/06/21 09:38:45;;;;;;;5.00;3.97;;;22.40;99.90;;;;;;5008219;28;20434;-86
2023/06/21 09:41:11;;;;;;;5.50;3.63;;;22.40;99.90;;;;;;5011713;28;20233;-85
2023/06/21 09:43:44;;;;;;;5.10;4.10;;;22.30;99.90;;;;;;5014957;28;20266;-86
2023/06/21 09:46:12;;;;;;;6.40;4.80;;;22.20;99.90;;;;;;5009137;28;20448;-83
2023/06/21 09:48:39;;;;;;;7.43;4.33;;;22.00;99.90;;;;;;5006364;28;20607;-84
2023/06/21 09:51:14;;;;;;;6.37;4.17;;;21.90;99.90;;;;;;4985110;28;20533;-85
2023/06/21 09:53:44;;;;;;;6.93;4.90;;;21.90;99.90;;;;;;5000332;28;20440;-85
2023/06/21 09:56:17;;;;;;;8.87;4.70;;;21.90;99.90;;;;;;5003171;28;20456;-85
2023/06/21 09:58:43;;;;;;;4.80;3.73;;;21.90;99.90;;;;;;5005163;28;20426;-84
2023/06/21 10:01:12;;;;;;;6.47;4.07;;;21.80;99.90;;;;;;5006252;28;20457;-83
2023/06/21 10:03:38;;;;;;;5.50;4.10;;;21.60;99.90;;;;;;4987232;28;20509;-82
2023/06/21 10:06:03;;;;;;;9.23;3.93;;;21.50;99.90;;;;;;5006797;28;20963;-84
2023/06/21 10:08:36;;;;;;;5.60;4.13;;;21.20;99.90;;;;;;5006522;28;20210;-85
2023/06/21 10:11:03;;;;;;;4.10;3.30;;;21.20;99.90;;;;;;5006651;28;20214;-82
2023/06/21 10:13:33;;;;;;;10.03;4.37;;;21.20;99.90;;;;;;5003133;28;20430;-85
2023/06/21 10:16:00;;;;;;;6.93;3.90;;;21.20;99.90;;;;;;5002850;28;20476;-84
2023/06/21 10:18:26;;;;;;;8.63;3.40;;;21.20;99.90;;;;;;5004986;28;20421;-85
2023/06/21 10:20:55;;;;;;;5.83;3.70;;;21.10;99.90;;;;;;5004312;28;20872;-85
2023/06/21 10:23:22;;;;;;;4.83;3.57;;;20.90;99.90;;;;;;4999506;28;21040;-82
2023/06/21 10:25:49;;;;;;;5.93;3.67;;;20.80;99.90;;;;;;5002973;28;20446;-84
2023/06/21 10:28:18;;;;;;;7.30;4.80;;;20.70;99.90;;;;;;5008971;28;20473;-84
2023/06/21 10:30:44;;;;;;;6.60;3.80;;;20.60;99.90;;;;;;5005841;28;20473;-84
2023/06/21 10:33:13;;;;;;;6.13;5.30;;;20.60;99.90;;;;;;5006823;28;20502;-84
2023/06/21 10:35:45;;;;;;;5.53;4.63;;;20.50;99.90;;;;;;5001144;28;20449;-84
2023/06/21 10:38:31;;;;;;;5.90;4.90;;;20.60;99.90;;;;;;5003405;28;20433;-84
2023/06/21 10:40:57;;;;;;;6.80;5.10;;;20.60;99.90;;;;;;4986088;28;20457;-84
2023/06/21 10:43:23;;;;;;;6.63;4.27;;;20.60;99.90;;;;;;5006446;28;20643;-85
2023/06/21 10:45:50;;;;;;;5.90;4.60;;;20.70;99.90;;;;;;4984320;28;20449;-85
2023/06/21 10:48:17;;;;;;;6.17;5.10;;;20.70;99.90;;;;;;5002760;28;20441;-85
2023/06/21 10:50:43;;;;;;;6.30;5.00;;;20.80;99.90;;;;;;4998362;28;20483;-86
2023/06/21 10:53:10;;;;;;;8.33;5.47;;;20.90;99.90;;;;;;4995302;28;20540;-85
2023/06/21 10:55:39;;;;;;;6.60;4.60;;;20.90;99.90;;;;;;4988742;28;20426;-86
2023/06/21 10:58:05;;;;;;;7.57;4.33;;;21.20;99.90;;;;;;5000975;28;20425;-84
2023/06/21 11:00:31;;;;;;;6.70;4.97;;;21.50;99.90;;;;;;5000344;28;20445;-85
2023/06/21 11:02:57;;;;;;;6.93;5.07;;;;;;;;;;5001971;28;20233;-85
2023/06/21 11:05:25;;;;;;;5.77;4.80;;;22.40;99.90;;;;;;4998688;28;20186;-85
2023/06/21 11:07:59;;;;;;;5.90;4.37;;;22.60;99.90;;;;;;5003052;28;20434;-84
2023/06/21 11:10:38;;;;;;;5.13;3.33;;;22.80;99.90;;;;;;4984157;28;20561;-84
2023/06/21 11:13:04;;;;;;;5.60;4.00;;;22.90;99.90;;;;;;4993730;28;20430;-85
2023/06/21 11:15:32;;;;;;;4.13;3.73;;;23.30;99.90;;;;;;5003292;28;20430;-84
2023/06/21 11:18:03;;;;;;;10.63;6.80;;;23.50;99.90;;;;;;5000990;28;20441;-85
2023/06/21 11:20:33;;;;;;;8.50;4.47;;;23.80;99.90;;;;;;4986619;28;20453;-85
2023/06/21 11:23:08;;;;;;;12.27;4.20;;;23.80;99.90;;;;;;5004583;28;20448;-85
2023/06/21 11:25:38;;;;;;;6.80;4.40;;;24.30;99.90;;;;;;5003364;28;20440;-85
2023/06/21 11:28:19;;;;;;;5.87;4.60;;;24.70;99.90;;;;;;4985599;28;20508;-85
2023/06/21 11:31:08;;;;;;;6.07;4.30;;;24.90;99.90;;;;;;5006811;28;20465;-85
2023/06/21 11:33:44;;;;;;;10.23;4.77;;;25.60;99.90;;;;;;4988671;28;20421;-85
2023/06/21 11:36:11;;;;;;;5.97;4.10;;;;;;;;;;4995815;28;20431;-84
2023/06/21 11:38:37;;;;;;;9.00;4.40;;;26.40;99.90;;;;;;5005516;28;20431;-85
2023/06/21 11:41:33;;;;;;;6.43;3.30;;;26.40;99.90;;;;;;5004648;28;20476;-84
2023/06/21 11:43:59;;;;;;;7.07;4.50;;;;;;;;;;4993165;28;20447;-85
2023/06/21 11:46:25;;;;;;;5.83;4.13;;;26.40;99.90;;;;;;5005137;28;20510;-86
2023/06/21 11:49:01;;;;;;;5.63;3.37;;;27.00;99.90;;;;;;5001734;28;20444;-85
2023/06/21 11:51:30;;;;;;;4.77;3.30;;;27.00;99.90;;;;;;5004098;28;20570;-85
2023/06/21 11:53:56;;;;;;;4.40;3.37;;;25.80;99.90;;;;;;5006979;28;20451;-85
2023/06/21 11:56:22;;;;;;;6.10;3.47;;;26.40;99.90;;;;;;5004286;28;20441;-86
2023/06/21 11:58:51;;;;;;;3.40;2.93;;;26.70;99.90;;;;;;4994318;28;20499;-85
2023/06/21 12:01:17;;;;;;;5.93;3.50;;;;;;;;;;4987921;28;20953;-85
2023/06/21 12:03:43;;;;;;;6.23;3.57;;;;;;;;;;5006898;28;20429;-85
2023/06/21 12:06:09;;;;;;;4.60;3.47;;;;;;;;;;5007856;28;20539;-85
2023/06/21 12:08:35;;;;;;;4.37;3.60;;;27.00;99.90;;;;;;4987224;28;20433;-86
2023/06/21 12:11:06;;;;;;;5.53;3.43;;;27.20;99.90;;;;;;5005031;28;20835;-86
2023/06/21 12:13:33;;;;;;;4.80;3.27;;;26.90;99.90;;;;;;5004086;28;20448;-85
2023/06/21 12:16:04;;;;;;;6.33;3.60;;;26.80;99.90;;;;;;4993277;28;20552;-86
2023/06/21 12:18:34;;;;;;;5.30;3.30;;;26.60;99.90;;;;;;5003606;28;20840;-85
2023/06/21 12:21:02;;;;;;;4.97;3.90;;;26.60;99.90;;;;;;5005410;28;20987;-86
2023/06/21 12:23:28;;;;;;;5.60;3.57;;;26.60;99.90;;;;;;5005587;28;20436;-85
2023/06/21 12:25:56;;;;;;;7.40;3.43;;;26.40;99.90;;;;;;4993891;28;20449;-85
2023/06/21 12:28:24;;;;;;;3.43;2.90;;;26.80;99.90;;;;;;5002158;28;20444;-85
2023/06/21 12:30:56;;;;;;;3.30;2.77;;;26.90;99.90;;;;;;4991755;28;20520;-85
2023/06/21 12:33:41;;;;;;;5.10;3.03;;;26.50;99.90;;;;;;5004638;28;20435;-85
2023/06/21 12:36:25;;;;;;;8.63;2.87;;;26.40;99.90;;;;;;5004306;28;20854;-85
2023/06/21 12:39:05;;;;;;;8.57;3.00;;;27.00;99.90;;;;;;4985940;28;20490;-85
2023/06/21 12:41:33;;;;;;;4.20;3.57;;;27.10;99.90;;;;;;4992187;28;20542;-86
2023/06/21 12:44:01;;;;;;;4.70;3.03;;;26.90;99.90;;;;;;5007542;28;20524;-86
2023/06/21 12:46:27;;;;;;;4.90;3.33;;;27.10;99.90;;;;;;4984950;28;20539;-86
2023/06/21 12:48:54;;;;;;;4.17;3.20;;;27.30;99.90;;;;;;5002509;28;20436;-86
2023/06/21 12:51:25;;;;;;;5.40;2.80;;;27.30;99.90;;;;;;5001645;28;20469;-86
2023/06/21 12:54:12;;;;;;;3.50;2.97;;;27.20;99.90;;;;;;5003572;28;20462;-86
2023/06/21 12:56:39;;;;;;;4.60;3.00;;;27.20;99.90;;;;;;5000772;28;20808;-86
2023/06/21 12:59:05;;;;;;;2.60;2.20;;;;;;;;;;4986068;28;20528;-84
2023/06/21 13:01:32;;;;;;;3.93;2.30;;;27.80;99.90;;;;;;5006096;28;20560;-85
2023/06/21 13:04:00;;;;;;;3.40;2.33;;;27.80;99.90;;;;;;5001793;28;20534;-86